createdAt,value
2023-05-23T00:05:56.470Z,15.5029296875
2023-05-23T00:15:56.246Z,15.7958984375
2023-05-23T00:25:56.205Z,16.10107421875
2023-05-23T00:35:56.273Z,16.00341796875
2023-05-23T00:45:56.061Z,16.6015625
2023-05-23T00:55:56.174Z,17.29736328125
2023-05-23T01:05:55.890Z,17.7001953125
2023-05-23T01:25:55.756Z,18.39599609375
2023-05-23T01:35:55.670Z,18.29833984375
2023-05-23T01:45:55.678Z,16.796875
2023-05-23T01:55:55.540Z,16.69921875
2023-05-23T02:05:55.468Z,16.69921875
2023-05-23T02:15:55.378Z,16.00341796875
2023-05-23T02:25:55.326Z,15.5029296875
2023-05-23T02:35:55.336Z,15.10009765625
2023-05-23T02:45:55.229Z,15.00244140625
2023-05-23T02:55:55.088Z,15.10009765625
2023-05-23T03:05:55.110Z,15.10009765625
2023-05-23T03:15:55.117Z,14.90478515625
2023-05-23T03:25:54.915Z,14.794921875
2023-05-23T03:35:55.010Z,14.501953125
2023-05-23T03:45:54.764Z,14.404296875
2023-05-23T03:55:54.705Z,14.19677734375
2023-05-23T04:05:54.718Z,14.19677734375
2023-05-23T04:15:54.511Z,14.19677734375
2023-05-23T04:25:54.441Z,14.29443359375
2023-05-23T04:35:54.360Z,14.00146484375
2023-05-23T04:45:54.468Z,14.00146484375
2023-05-23T04:55:54.557Z,13.5009765625
2023-05-23T05:05:54.158Z,13.7939453125
2023-05-23T05:15:54.057Z,13.5986328125
2023-05-23T05:25:54.004Z,13.4033203125
2023-05-23T05:31:41.833Z,14.00146484375
2023-05-23T05:41:41.399Z,13.3056640625
2023-05-23T05:51:41.357Z,13.3056640625
2023-05-23T06:01:41.276Z,13.00048828125
2023-05-23T06:11:41.371Z,13.3056640625
2023-05-23T06:21:41.181Z,13.00048828125
2023-05-23T06:31:41.223Z,13.6962890625
2023-05-23T06:41:41.047Z,13.09814453125
2023-05-23T06:51:40.974Z,13.3056640625
2023-05-23T07:01:41.033Z,13.09814453125
2023-05-23T07:11:40.897Z,12.90283203125
2023-05-23T07:21:40.953Z,12.6953125
2023-05-23T07:31:40.843Z,12.90283203125
2023-05-23T07:41:40.602Z,13.09814453125
2023-05-23T07:51:40.710Z,13.5009765625
2023-05-23T08:01:40.685Z,13.5009765625
2023-05-23T08:11:40.339Z,13.4033203125
2023-05-23T08:21:40.433Z,13.5009765625
2023-05-23T08:31:40.259Z,13.3056640625
2023-05-23T08:41:40.158Z,13.5986328125
2023-05-23T08:51:40.098Z,13.5009765625
2023-05-23T09:01:40.271Z,13.7939453125
2023-05-23T09:11:39.963Z,13.3056640625
2023-05-23T09:21:39.853Z,13.5009765625
2023-05-23T09:31:39.888Z,13.5009765625
2023-05-23T09:41:39.738Z,13.90380859375
2023-05-23T09:51:39.647Z,13.90380859375
2023-05-23T10:01:39.736Z,13.6962890625
2023-05-23T10:11:39.527Z,13.5986328125
2023-05-23T10:21:39.443Z,13.90380859375
2023-05-23T10:31:39.417Z,13.7939453125
2023-05-23T10:41:39.442Z,13.5009765625
2023-05-23T10:51:39.257Z,13.7939453125
2023-05-23T11:01:39.476Z,13.5009765625
2023-05-23T11:11:39.286Z,13.19580078125
2023-05-23T11:21:39.210Z,13.3056640625
2023-05-23T11:31:38.957Z,12.80517578125
2023-05-23T11:41:39.052Z,12.6953125
2023-05-23T11:51:38.803Z,12.5
2023-05-23T12:01:38.814Z,12.5
2023-05-23T12:11:38.635Z,12.298583984375
2023-05-23T12:21:38.569Z,11.99951171875
2023-05-23T12:31:38.651Z,11.99951171875
2023-05-23T12:41:38.561Z,11.90185546875
2023-05-23T12:51:38.441Z,11.700439453125
2023-05-23T13:01:38.321Z,11.4990234375
2023-05-23T13:11:38.364Z,11.4013671875
2023-05-23T13:21:38.181Z,11.4013671875
2023-05-23T13:31:38.129Z,11.297607421875
2023-05-23T13:41:37.998Z,11.297607421875
2023-05-23T13:51:37.940Z,11.199951171875
2023-05-23T14:01:37.891Z,10.99853515625
2023-05-23T14:11:37.792Z,10.90087890625
2023-05-23T14:21:37.748Z,10.797119140625
2023-05-23T14:31:37.759Z,10.797119140625
2023-05-23T14:41:37.664Z,10.601806640625
2023-05-23T14:51:47.392Z,10.601806640625
2023-05-23T15:01:40.125Z,10.601806640625
2023-05-23T15:11:37.501Z,10.498046875
2023-05-23T15:21:37.334Z,10.498046875
2023-05-23T15:31:37.289Z,10.400390625
2023-05-23T15:41:37.144Z,10.302734375
2023-05-23T15:51:37.088Z,10.198974609375
2023-05-23T16:01:37.185Z,10.101318359375
2023-05-23T16:11:36.947Z,10.101318359375
2023-05-23T16:21:36.868Z,9.99755859375
2023-05-23T16:31:36.911Z,9.99755859375
2023-05-23T16:41:36.758Z,9.89990234375
2023-05-23T16:51:36.968Z,9.89990234375
2023-05-23T17:01:36.643Z,9.89990234375
2023-05-23T17:11:36.515Z,9.89990234375
2023-05-23T17:21:36.442Z,9.80224609375
2023-05-23T17:31:36.449Z,9.80224609375
2023-05-23T17:41:36.323Z,9.80224609375
2023-05-23T17:51:36.252Z,9.89990234375
2023-05-23T18:01:36.163Z,9.80224609375
2023-05-23T18:11:36.137Z,9.89990234375
2023-05-23T18:21:36.188Z,9.99755859375
2023-05-23T18:31:36.073Z,10.302734375
2023-05-23T18:41:36.024Z,10.400390625
2023-05-23T18:51:36.200Z,10.699462890625
2023-05-23T19:01:35.859Z,11.102294921875
2023-05-23T19:11:35.815Z,11.4990234375
2023-05-23T19:21:35.714Z,11.4013671875
2023-05-23T19:31:35.587Z,11.602783203125
2023-05-23T19:41:35.680Z,11.602783203125
2023-05-23T19:51:35.393Z,11.602783203125
2023-05-23T20:01:35.403Z,11.700439453125
2023-05-23T20:11:35.266Z,11.700439453125
2023-05-23T20:21:35.172Z,11.700439453125
2023-05-23T20:31:35.287Z,11.700439453125
2023-05-23T20:41:35.261Z,11.798095703125
2023-05-23T20:51:35.000Z,11.798095703125
2023-05-23T21:01:35.032Z,11.798095703125
2023-05-23T21:11:34.837Z,11.90185546875
2023-05-23T21:21:34.808Z,11.798095703125
2023-05-23T21:31:41.523Z,11.700439453125
2023-05-23T21:41:34.636Z,11.798095703125
2023-05-23T21:51:34.554Z,11.798095703125
2023-05-23T22:01:02.380Z,11.90185546875
2023-05-23T22:11:02.031Z,11.90185546875
2023-05-23T22:21:01.903Z,12.09716796875
2023-05-23T22:31:02.070Z,12.200927734375
2023-05-23T22:41:01.778Z,12.298583984375
2023-05-23T22:51:01.751Z,12.59765625
2023-05-23T23:01:01.708Z,12.6953125
2023-05-23T23:11:01.586Z,12.6953125
2023-05-23T23:21:01.503Z,12.5
2023-05-23T23:31:01.518Z,12.5
2023-05-23T23:41:01.425Z,12.80517578125
2023-05-23T23:51:01.271Z,12.90283203125
